Time;durP1;ratioP1;P1;durP2;ratioP2;P2;SDS_P1;SDS_P2;PMS_P1;PMS_P2;Temp;Humidity;BMP_temperature;BMP_pressure;BME280_temperature;BME280_humidity;BME280_pressure;Samples;Min_cycle;Max_cycle;Signal;HPM_P1;HPM_P2
2023/10/18 00:00:15;;;;;;;3.92;1.50;;;7.30;1.00;;;;;;5137458;27;20418;-57
2023/10/18 00:02:44;;;;;;;4.05;1.85;;;7.30;1.00;;;;;;5136945;27;20830;-59
2023/10/18 00:05:12;;;;;;;5.25;1.70;;;7.30;1.00;;;;;;5137506;27;20414;-58
2023/10/18 00:07:40;;;;;;;2.60;1.40;;;7.30;1.00;;;;;;5137145;27;20422;-58
2023/10/18 00:10:09;;;;;;;3.30;1.90;;;7.30;1.00;;;;;;5136758;27;20414;-59
2023/10/18 00:12:37;;;;;;;3.55;1.88;;;7.30;1.00;;;;;;5136829;27;20410;-57
2023/10/18 00:15:06;;;;;;;2.90;1.70;;;7.20;1.00;;;;;;5136982;27;20415;-59
2023/10/18 00:17:33;;;;;;;3.40;1.70;;;7.30;1.00;;;;;;5136735;27;20426;-57
2023/10/18 00:20:01;;;;;;;3.20;1.60;;;7.20;1.00;;;;;;5136928;27;20513;-58
2023/10/18 00:22:28;;;;;;;3.20;1.70;;;7.20;1.00;;;;;;5136101;27;20426;-59
2023/10/18 00:24:57;;;;;;;4.50;1.70;;;7.10;1.00;;;;;;5136317;27;20410;-59
2023/10/18 00:27:25;;;;;;;4.97;2.00;;;7.10;1.00;;;;;;5136314;27;20406;-58
2023/10/18 00:29:54;;;;;;;4.87;1.70;;;7.10;1.00;;;;;;5136958;27;20853;-58
2023/10/18 00:32:21;;;;;;;4.00;1.60;;;7.10;1.00;;;;;;5137109;27;20479;-57
2023/10/18 00:34:49;;;;;;;3.38;1.55;;;7.10;1.00;;;;;;5136438;27;20435;-58
2023/10/18 00:37:21;;;;;;;4.40;1.90;;;7.10;1.00;;;;;;5135546;27;20777;-58
2023/10/18 00:39:48;;;;;;;3.63;2.03;;;7.10;1.00;;;;;;5135465;27;20411;-58
2023/10/18 00:42:27;;;;;;;3.28;1.88;;;7.10;1.00;;;;;;5135740;27;20414;-58
2023/10/18 00:45:02;;;;;;;3.97;1.80;;;7.10;1.00;;;;;;5136235;27;20687;-59
2023/10/18 00:47:30;;;;;;;3.75;1.67;;;7.10;1.00;;;;;;5136080;27;20462;-59
2023/10/18 00:49:58;;;;;;;3.95;1.80;;;7.10;1.00;;;;;;5135852;27;20426;-59
2023/10/18 00:52:28;;;;;;;5.30;2.10;;;7.10;1.00;;;;;;5136041;27;20422;-58
2023/10/18 00:54:55;;;;;;;4.75;1.70;;;7.10;1.00;;;;;;5135230;27;20423;-60
2023/10/18 00:57:25;;;;;;;2.58;1.60;;;7.00;1.00;;;;;;5134420;27;20433;-59
2023/10/18 00:59:55;;;;;;;4.10;1.60;;;7.00;1.00;;;;;;5134534;27;20926;-58
2023/10/18 01:02:28;;;;;;;6.30;2.30;;;7.00;1.00;;;;;;5134755;27;20422;-58
2023/10/18 01:04:55;;;;;;;3.63;1.70;;;6.90;1.00;;;;;;5135875;27;20513;-58
2023/10/18 01:07:23;;;;;;;2.40;1.30;;;6.90;1.00;;;;;;5134843;27;20429;-58
2023/10/18 01:09:53;;;;;;;3.30;1.90;;;6.80;1.00;;;;;;5131130;27;20411;-57
2023/10/18 01:12:23;;;;;;;3.28;1.50;;;6.80;1.00;;;;;;5134574;27;20415;-56
2023/10/18 01:14:52;;;;;;;3.75;1.80;;;6.80;1.00;;;;;;5135227;27;20426;-59
2023/10/18 01:17:20;;;;;;;3.80;1.65;;;6.90;1.00;;;;;;5135692;27;20428;-59
2023/10/18 01:19:47;;;;;;;3.70;1.70;;;6.80;1.00;;;;;;5135343;27;20409;-58
2023/10/18 01:22:17;;;;;;;4.32;1.60;;;6.80;1.00;;;;;;5135336;27;20423;-59
2023/10/18 01:24:45;;;;;;;3.17;1.70;;;6.70;1.00;;;;;;5135623;27;20413;-58
2023/10/18 01:27:13;;;;;;;3.60;1.60;;;6.80;1.00;;;;;;5135652;27;20951;-58
2023/10/18 01:29:40;;;;;;;4.03;1.90;;;6.90;1.00;;;;;;5135496;27;20487;-58
2023/10/18 01:32:08;;;;;;;4.13;1.98;;;6.90;1.00;;;;;;5136008;27;20467;-58
2023/10/18 01:34:36;;;;;;;3.40;1.83;;;6.90;1.00;;;;;;5135421;27;20434;-59
2023/10/18 01:37:05;;;;;;;4.15;1.83;;;6.90;1.00;;;;;;5135394;27;20416;-56
2023/10/18 01:39:32;;;;;;;3.13;1.80;;;6.90;1.00;;;;;;5135344;27;20415;-58
2023/10/18 01:42:01;;;;;;;4.95;2.15;;;6.80;1.00;;;;;;5135966;27;20426;-59
2023/10/18 01:44:33;;;;;;;4.35;1.88;;;6.80;1.00;;;;;;5135709;27;20418;-57
2023/10/18 01:47:06;;;;;;;5.30;1.98;;;6.80;1.00;;;;;;5135577;27;20429;-59
2023/10/18 01:49:38;;;;;;;5.10;1.83;;;6.80;1.00;;;;;;5135425;27;20442;-58
2023/10/18 01:52:06;;;;;;;5.00;1.80;;;6.70;1.00;;;;;;5135509;27;20506;-58
2023/10/18 01:54:34;;;;;;;3.78;1.60;;;6.70;1.00;;;;;;5135477;27;20426;-54
2023/10/18 01:57:02;;;;;;;3.85;2.00;;;6.70;1.00;;;;;;5135315;27;20878;-60
2023/10/18 01:59:30;;;;;;;4.75;1.90;;;6.70;1.00;;;;;;5135380;27;20475;-57
2023/10/18 02:01:58;;;;;;;4.63;1.90;;;6.70;1.00;;;;;;5134276;27;20422;-57
2023/10/18 02:04:26;;;;;;;4.07;1.80;;;6.60;1.00;;;;;;5135327;27;20509;-58
2023/10/18 02:06:57;;;;;;;3.78;2.40;;;6.70;1.00;;;;;;5133982;27;20411;-59
2023/10/18 02:09:27;;;;;;;5.15;2.20;;;6.70;1.00;;;;;;5134368;27;20415;-58
2023/10/18 02:11:54;;;;;;;5.80;2.28;;;6.70;1.00;;;;;;5134210;27;20830;-59
2023/10/18 02:14:24;;;;;;;3.60;1.90;;;6.70;1.00;;;;;;5133404;27;20699;-58
2023/10/18 02:16:51;;;;;;;3.95;1.80;;;6.70;1.00;;;;;;5133468;27;20422;-58
2023/10/18 02:19:21;;;;;;;4.40;1.70;;;6.80;1.00;;;;;;5134616;27;20419;-56
2023/10/18 02:21:49;;;;;;;4.13;1.80;;;6.80;1.00;;;;;;5136765;27;20415;-56
2023/10/18 02:24:17;;;;;;;2.50;1.70;;;6.80;1.00;;;;;;5138574;27;20679;-58
2023/10/18 02:26:54;;;;;;;4.90;2.15;;;6.80;1.00;;;;;;5138781;27;20841;-58
2023/10/18 02:29:24;;;;;;;4.97;1.90;;;6.70;1.00;;;;;;5138943;27;20510;-57
2023/10/18 02:31:52;;;;;;;4.70;2.30;;;6.60;1.00;;;;;;5138816;27;20418;-58
2023/10/18 02:34:20;;;;;;;4.90;2.38;;;6.60;1.00;;;;;;5138608;27;20434;-57
2023/10/18 02:36:51;;;;;;;4.63;2.15;;;6.60;1.00;;;;;;5139065;27;20425;-56
2023/10/18 02:39:24;;;;;;;4.32;1.90;;;6.60;1.00;;;;;;5138849;27;20421;-58
2023/10/18 02:41:54;;;;;;;4.25;1.88;;;6.60;1.00;;;;;;5138873;27;20852;-59
2023/10/18 02:44:23;;;;;;;4.75;1.98;;;6.80;1.00;;;;;;5138704;27;20426;-58
2023/10/18 02:46:55;;;;;;;4.38;2.60;;;6.80;1.00;;;;;;5139000;27;20430;-58
2023/10/18 02:49:27;;;;;;;4.72;2.00;;;6.80;1.00;;;;;;5138342;27;20433;-58
2023/10/18 02:51:56;;;;;;;4.07;1.98;;;6.80;1.00;;;;;;5138595;27;20418;-58
2023/10/18 02:54:24;;;;;;;3.83;2.05;;;6.90;1.00;;;;;;5138359;27;20729;-56
2023/10/18 02:56:53;;;;;;;4.13;2.30;;;6.80;1.00;;;;;;5138797;27;20733;-55
2023/10/18 02:59:22;;;;;;;5.28;2.40;;;6.80;1.00;;;;;;5138416;27;20461;-57
2023/10/18 03:01:52;;;;;;;3.95;1.98;;;6.90;1.00;;;;;;5137547;27;20429;-58
2023/10/18 03:04:22;;;;;;;4.22;1.80;;;6.80;1.00;;;;;;5137527;27;20429;-58
2023/10/18 03:06:51;;;;;;;6.00;2.05;;;6.90;1.00;;;;;;5136948;27;20930;-58
2023/10/18 03:09:28;;;;;;;6.75;2.38;;;6.90;1.00;;;;;;5138398;27;20445;-59
2023/10/18 03:11:55;;;;;;;3.67;1.85;;;6.90;1.00;;;;;;5138077;27;20442;-57
2023/10/18 03:14:39;;;;;;;4.05;2.20;;;6.90;1.00;;;;;;5138077;27;20846;-56
2023/10/18 03:17:14;;;;;;;4.22;2.20;;;6.90;1.00;;;;;;5137513;27;20422;-57
2023/10/18 03:19:44;;;;;;;4.38;2.17;;;6.90;1.00;;;;;;5136131;27;20430;-55
2023/10/18 03:22:11;;;;;;;5.55;2.10;;;6.90;1.00;;;;;;5134762;27;20453;-57
2023/10/18 03:24:38;;;;;;;5.20;2.30;;;6.90;1.00;;;;;;5133873;27;20856;-57
2023/10/18 03:27:08;;;;;;;3.20;1.90;;;6.90;1.00;;;;;;5133834;27;20414;-54
2023/10/18 03:29:38;;;;;;;6.75;2.35;;;6.90;1.00;;;;;;5133876;27;20515;-56
2023/10/18 03:32:08;;;;;;;4.30;2.22;;;6.90;1.00;;;;;;5134405;27;20422;-54
2023/10/18 03:34:37;;;;;;;5.43;2.30;;;6.90;1.00;;;;;;5135557;27;20529;-54
2023/10/18 03:37:18;;;;;;;4.60;2.10;;;6.90;1.00;;;;;;5136437;27;20759;-52
2023/10/18 03:39:47;;;;;;;5.38;2.20;;;6.80;1.00;;;;;;5137430;27;20605;-54
2023/10/18 03:42:26;;;;;;;4.40;2.20;;;6.80;1.00;;;;;;5137739;27;20726;-55
2023/10/18 03:44:53;;;;;;;5.00;2.30;;;6.80;1.00;;;;;;5137402;27;20483;-56
2023/10/18 03:47:25;;;;;;;4.22;1.80;;;6.80;1.00;;;;;;5136331;27;20426;-54
2023/10/18 03:49:53;;;;;;;5.90;2.63;;;6.80;1.00;;;;;;5135807;27;20453;-56
2023/10/18 03:52:22;;;;;;;4.30;2.03;;;6.80;1.00;;;;;;5135025;27;20419;-56
2023/10/18 03:55:04;;;;;;;3.90;2.22;;;6.70;1.00;;;;;;5134925;27;20458;-56
2023/10/18 03:57:37;;;;;;;5.40;3.30;;;6.80;1.00;;;;;;5135778;27;20914;-55
2023/10/18 04:00:28;;;;;;;4.40;2.03;;;6.80;1.00;;;;;;5135696;27;20426;-56
2023/10/18 04:02:56;;;;;;;4.03;2.08;;;6.80;1.00;;;;;;5136876;27;20885;-55
2023/10/18 04:05:38;;;;;;;4.43;2.30;;;6.80;1.00;;;;;;5137277;27;20714;-56
2023/10/18 04:08:06;;;;;;;4.07;1.85;;;6.70;1.00;;;;;;5136066;27;20858;-58
2023/10/18 04:10:36;;;;;;;4.82;1.80;;;6.70;1.00;;;;;;5136152;27;20413;-56
2023/10/18 04:13:05;;;;;;;4.30;2.13;;;6.70;1.00;;;;;;5134194;27;20422;-54
2023/10/18 04:15:37;;;;;;;5.20;2.50;;;6.70;2.50;;;;;;5136420;27;20427;-56
2023/10/18 04:18:12;;;;;;;5.43;2.28;;;6.70;1.00;;;;;;5136774;27;20501;-55
2023/10/18 04:20:43;;;;;;;5.82;2.80;;;6.80;1.00;;;;;;5136371;27;20425;-55
2023/10/18 04:23:18;;;;;;;5.20;2.10;;;6.80;1.00;;;;;;5136891;27;20905;-55
2023/10/18 04:25:57;;;;;;;3.45;1.50;;;6.80;1.00;;;;;;5136799;27;20422;-57
2023/10/18 04:28:25;;;;;;;5.35;2.20;;;6.80;1.00;;;;;;5136370;27;20419;-54
2023/10/18 04:30:59;;;;;;;4.55;2.30;;;6.80;1.00;;;;;;5135653;27;20822;-56
2023/10/18 04:33:28;;;;;;;4.05;2.30;;;6.80;1.00;;;;;;5135865;27;20779;-55
2023/10/18 04:35:57;;;;;;;4.55;1.98;;;6.90;1.00;;;;;;5134621;27;20473;-57
2023/10/18 04:38:30;;;;;;;6.75;2.50;;;6.90;1.00;;;;;;5134733;27;20849;-56
2023/10/18 04:41:07;;;;;;;3.70;2.53;;;6.90;1.00;;;;;;5135188;27;20426;-56
2023/10/18 04:43:34;;;;;;;4.93;2.22;;;6.80;1.00;;;;;;5135264;27;20493;-57
2023/10/18 04:46:07;;;;;;;5.28;3.00;;;6.80;1.00;;;;;;5136024;27;20418;-57
2023/10/18 04:51:28;;;;;;;4.70;2.40;;;6.70;1.00;;;;;;5132090;27;20824;-56
2023/10/18 04:53:57;;;;;;;4.85;2.70;;;6.60;17.60;;;;;;5133489;27;20422;-55
2023/10/18 04:56:31;;;;;;;5.20;2.50;;;6.50;24.90;;;;;;5132781;27;20427;-57
2023/10/18 04:58:59;;;;;;;4.90;2.25;;;6.40;43.30;;;;;;5132218;27;20731;-57
2023/10/18 05:01:34;;;;;;;8.15;2.90;;;6.40;53.90;;;;;;5133454;27;20733;-56
2023/10/18 05:06:45;;;;;;;5.85;2.90;;;6.50;51.40;;;;;;5133918;27;20403;-55
2023/10/18 05:09:12;;;;;;;4.88;2.50;;;6.50;49.10;;;;;;5133841;27;20848;-55
2023/10/18 05:11:47;;;;;;;6.83;2.60;;;6.60;38.30;;;;;;5133158;27;20429;-57
2023/10/18 05:14:19;;;;;;;7.35;2.85;;;6.60;30.50;;;;;;5135099;27;20898;-55
2023/10/18 05:16:47;;;;;;;4.20;2.42;;;6.60;27.20;;;;;;5134717;27;20752;-57
2023/10/18 05:19:28;;;;;;;5.38;3.10;;;6.60;21.30;;;;;;5134363;27;20421;-56
2023/10/18 05:21:55;;;;;;;6.88;3.42;;;6.60;18.30;;;;;;5134186;27;20513;-57
2023/10/18 05:24:23;;;;;;;6.28;1.95;;;6.60;17.20;;;;;;5131678;27;20417;-55
2023/10/18 05:26:54;;;;;;;6.07;2.97;;;6.90;48.00;;;;;;5133965;27;20422;-56
2023/10/18 05:29:22;;;;;;;4.95;2.75;;;7.10;2.60;;;;;;5133125;27;20845;-56
2023/10/18 05:32:05;;;;;;;6.03;3.60;;;7.00;1.00;;;;;;5131689;27;20479;-56
2023/10/18 05:37:14;;;;;;;5.10;3.10;;;6.90;1.00;;;;;;5130929;27;20832;-55
2023/10/18 05:42:35;;;;;;;5.72;3.83;;;6.90;1.00;;;;;;5132403;28;20417;-54
2023/10/18 05:45:03;;;;;;;8.25;4.30;;;6.80;1.00;;;;;;5132342;27;20410;-55
2023/10/18 05:47:31;;;;;;;6.23;3.63;;;6.90;1.00;;;;;;5129291;27;20411;-52
2023/10/18 05:49:59;;;;;;;7.85;3.92;;;6.80;1.00;;;;;;5129240;27;20429;-55
2023/10/18 05:52:37;;;;;;;7.05;3.63;;;6.80;1.00;;;;;;5130757;27;20462;-52
2023/10/18 05:55:09;;;;;;;5.78;2.95;;;6.80;1.00;;;;;;5134993;27;20426;-54
2023/10/18 05:57:37;;;;;;;8.13;3.95;;;6.70;1.00;;;;;;5136119;27;20421;-54
2023/10/18 06:00:17;;;;;;;6.00;3.25;;;6.70;1.00;;;;;;5136010;27;20836;-55
2023/10/18 06:02:45;;;;;;;8.13;3.22;;;6.70;1.00;;;;;;5137247;27;20418;-54
2023/10/18 06:05:12;;;;;;;5.35;3.15;;;6.70;1.00;;;;;;5136922;27;20520;-55
2023/10/18 06:07:41;;;;;;;6.85;3.42;;;6.70;1.00;;;;;;5136063;27;20417;-54
2023/10/18 06:10:16;;;;;;;6.50;3.50;;;6.70;1.00;;;;;;5136039;27;20418;-54
2023/10/18 06:12:46;;;;;;;7.28;3.20;;;6.70;1.00;;;;;;5136811;27;20825;-55
2023/10/18 06:15:16;;;;;;;6.82;3.72;;;6.60;1.00;;;;;;5135378;27;20426;-54
2023/10/18 06:17:53;;;;;;;7.00;3.38;;;6.50;2.60;;;;;;5134344;27;20753;-56
2023/10/18 06:20:27;;;;;;;8.10;2.97;;;6.60;8.30;;;;;;5134677;27;20478;-56
2023/10/18 06:23:07;;;;;;;6.00;3.67;;;6.70;5.50;;;;;;5134985;27;20517;-56
2023/10/18 06:25:38;;;;;;;6.97;3.22;;;6.80;1.00;;;;;;5136733;27;20752;-56
2023/10/18 06:28:07;;;;;;;5.47;2.85;;;6.90;1.00;;;;;;5136191;27;20423;-56
2023/10/18 06:30:40;;;;;;;7.45;3.42;;;6.90;1.00;;;;;;5136055;27;20799;-54
2023/10/18 06:33:09;;;;;;;6.97;4.15;;;6.90;1.00;;;;;;5131807;27;20430;-56
2023/10/18 06:35:42;;;;;;;6.47;3.60;;;6.90;1.00;;;;;;5133890;27;20521;-56
2023/10/18 06:38:16;;;;;;;6.93;3.75;;;6.90;1.00;;;;;;5131974;27;20430;-51
2023/10/18 06:40:50;;;;;;;6.85;3.50;;;7.00;1.00;;;;;;5112258;28;20689;-55
2023/10/18 06:43:20;;;;;;;5.68;2.80;;;7.00;1.00;;;;;;5132804;27;20708;-54
2023/10/18 06:45:48;;;;;;;5.07;2.95;;;7.00;1.00;;;;;;5135135;27;20417;-53
2023/10/18 06:48:16;;;;;;;7.05;4.07;;;7.00;1.00;;;;;;5119716;27;20881;-53
2023/10/18 06:50:46;;;;;;;6.75;3.22;;;7.10;1.00;;;;;;5114704;28;20427;-53
2023/10/18 06:53:14;;;;;;;6.60;3.60;;;7.00;1.00;;;;;;5134449;27;20430;-54
2023/10/18 06:55:44;;;;;;;6.72;3.45;;;7.10;1.00;;;;;;5134641;27;20422;-56
2023/10/18 06:58:15;;;;;;;5.97;3.70;;;7.10;1.00;;;;;;5134326;27;20559;-56
2023/10/18 07:00:47;;;;;;;9.77;3.70;;;7.20;1.00;;;;;;5134707;27;20426;-55
2023/10/18 07:03:17;;;;;;;7.40;3.10;;;7.30;1.00;;;;;;5132999;27;20462;-55
2023/10/18 07:05:49;;;;;;;7.15;3.75;;;7.40;1.00;;;;;;5129738;27;20701;-58
2023/10/18 07:08:25;;;;;;;7.45;3.63;;;7.50;1.00;;;;;;5131640;27;20439;-53
2023/10/18 07:10:56;;;;;;;7.13;3.05;;;7.50;1.00;;;;;;5134651;27;20418;-53
2023/10/18 07:13:34;;;;;;;7.33;2.83;;;7.50;1.00;;;;;;5132960;27;20492;-54
2023/10/18 07:16:12;;;;;;;8.40;3.70;;;7.50;1.00;;;;;;5126445;27;20434;-54
2023/10/18 07:18:39;;;;;;;9.67;3.67;;;7.40;1.00;;;;;;5134928;27;20419;-54
2023/10/18 07:21:06;;;;;;;8.60;3.63;;;7.30;1.00;;;;;;5134152;27;20845;-53
2023/10/18 07:23:36;;;;;;;7.15;4.00;;;7.40;1.00;;;;;;5132903;27;20694;-55
2023/10/18 07:26:07;;;;;;;9.23;4.47;;;7.50;1.00;;;;;;5131527;27;20411;-53
2023/10/18 07:28:36;;;;;;;10.70;3.90;;;7.50;1.00;;;;;;5133482;27;20822;-54
2023/10/18 07:31:08;;;;;;;4.30;3.00;;;7.50;1.00;;;;;;5134315;27;20505;-58
2023/10/18 07:33:41;;;;;;;6.90;3.50;;;7.60;1.00;;;;;;5132685;27;20419;-54
2023/10/18 07:36:09;;;;;;;6.88;3.60;;;7.70;1.00;;;;;;5134340;27;20430;-51
2023/10/18 07:38:39;;;;;;;7.30;3.95;;;7.70;1.00;;;;;;5132434;27;20425;-55
2023/10/18 07:41:08;;;;;;;9.03;4.30;;;7.80;1.00;;;;;;5133114;27;20424;-51
2023/10/18 07:43:37;;;;;;;8.23;4.50;;;7.80;1.00;;;;;;5133001;27;20467;-49
2023/10/18 07:46:16;;;;;;;8.70;4.13;;;7.90;1.00;;;;;;5132991;27;20422;-53
2023/10/18 07:48:47;;;;;;;8.80;4.53;;;8.10;1.00;;;;;;5133751;27;20483;-55
2023/10/18 07:51:24;;;;;;;6.90;3.72;;;8.10;1.00;;;;;;5133478;27;20814;-57
2023/10/18 07:53:53;;;;;;;7.05;3.40;;;8.10;1.00;;;;;;5131282;27;20799;-53
2023/10/18 07:56:26;;;;;;;10.80;3.93;;;8.30;1.00;;;;;;5133068;27;20847;-57
2023/10/18 07:58:55;;;;;;;7.60;4.30;;;8.50;1.00;;;;;;5114649;28;20424;-55
2023/10/18 08:04:17;;;;;;;8.40;4.65;;;8.70;1.00;;;;;;5074995;28;20419;-54
2023/10/18 08:06:45;;;;;;;6.40;3.47;;;8.60;1.00;;;;;;5112788;28;20831;-54
2023/10/18 08:09:16;;;;;;;8.82;3.90;;;8.70;1.00;;;;;;5113294;27;20408;-55
2023/10/18 08:11:46;;;;;;;7.57;4.13;;;8.70;1.00;;;;;;5127344;27;20509;-54
2023/10/18 08:14:19;;;;;;;6.75;2.95;;;8.70;1.00;;;;;;5125707;27;20430;-55
2023/10/18 08:16:55;;;;;;;6.88;3.58;;;8.90;1.00;;;;;;5127806;27;20426;-55
2023/10/18 08:19:25;;;;;;;8.83;4.43;;;9.00;1.00;;;;;;5125458;27;20533;-56
2023/10/18 08:22:09;;;;;;;7.38;3.95;;;9.20;1.00;;;;;;5128377;27;20436;-56
2023/10/18 08:24:37;;;;;;;9.00;4.33;;;9.30;99.90;;;;;;5115522;27;20416;-56
2023/10/18 08:27:10;;;;;;;9.93;4.67;;;9.20;99.90;;;;;;5127911;27;20426;-50
2023/10/18 08:29:38;;;;;;;7.72;3.83;;;9.10;1.00;;;;;;5134744;27;21371;-54
2023/10/18 08:32:14;;;;;;;5.30;3.38;;;9.00;1.00;;;;;;5113856;28;20787;-54
2023/10/18 08:34:42;;;;;;;5.82;3.50;;;9.10;1.00;;;;;;5122337;27;20434;-55
2023/10/18 08:37:11;;;;;;;9.60;4.20;;;9.20;1.00;;;;;;5134194;27;20426;-54
2023/10/18 08:39:40;;;;;;;8.05;3.50;;;9.20;1.00;;;;;;5132691;27;20438;-55
2023/10/18 08:42:10;;;;;;;7.20;4.07;;;9.50;1.00;;;;;;5133740;27;20414;-55
2023/10/18 08:44:39;;;;;;;8.48;4.00;;;9.80;99.90;;;;;;5131314;27;20948;-53
2023/10/18 08:47:14;;;;;;;6.25;3.22;;;9.90;99.20;;;;;;5129314;27;20422;-56
2023/10/18 08:49:51;;;;;;;5.80;2.88;;;10.00;23.10;;;;;;5134428;27;20866;-56
2023/10/18 08:52:23;;;;;;;7.88;3.70;;;10.10;99.90;;;;;;5130173;27;20733;-56
2023/10/18 08:54:52;;;;;;;5.03;2.90;;;10.20;1.00;;;;;;5129472;27;20459;-54
2023/10/18 08:57:34;;;;;;;6.95;3.78;;;10.30;1.00;;;;;;5127935;27;20448;-56
2023/10/18 09:00:47;;;;;;;5.97;3.65;;;10.10;1.00;;;;;;5132370;27;20418;-53
2023/10/18 09:03:07;;;;;;;6.30;2.78;;;10.10;1.00;;;;;;5129622;27;20482;-56
2023/10/18 09:05:36;;;;;;;7.47;3.27;;;10.20;1.00;;;;;;5131035;27;20807;-56
2023/10/18 09:08:03;;;;;;;3.80;1.98;;;10.20;1.00;;;;;;5132366;27;20553;-55
2023/10/18 09:10:43;;;;;;;5.47;2.85;;;10.50;1.00;;;;;;5131958;27;20410;-55
2023/10/18 09:13:33;;;;;;;4.97;3.00;;;10.80;59.80;;;;;;5134665;27;20426;-54
2023/10/18 09:16:11;;;;;;;5.70;3.20;;;10.60;19.10;;;;;;5134121;27;20833;-54
2023/10/18 09:18:37;;;;;;;7.18;3.15;;;10.70;99.90;;;;;;5130891;27;20725;-56
2023/10/18 09:21:09;;;;;;;8.10;4.67;;;10.90;99.90;;;;;;5120112;27;20420;-56
2023/10/18 09:23:36;;;;;;;4.80;3.70;;;10.80;1.00;;;;;;5118016;27;20422;-56
2023/10/18 09:26:10;;;;;;;6.72;4.10;;;11.00;1.00;;;;;;5133313;27;20414;-56
2023/10/18 09:28:39;;;;;;;5.57;3.70;;;11.10;1.00;;;;;;5132603;27;20906;-53
2023/10/18 09:31:12;;;;;;;7.85;3.50;;;11.00;1.00;;;;;;5136033;27;20466;-55
2023/10/18 09:33:48;;;;;;;7.70;4.63;;;11.10;99.90;;;;;;5137561;27;20464;-55
2023/10/18 09:36:19;;;;;;;9.18;5.07;;;11.30;99.90;;;;;;5136332;27;20513;-55
2023/10/18 09:38:48;;;;;;;6.53;3.20;;;11.30;99.90;;;;;;5133100;27;20494;-59
2023/10/18 09:41:16;;;;;;;7.82;4.30;;;11.40;99.90;;;;;;5134972;27;20422;-55
2023/10/18 09:43:44;;;;;;;7.47;4.40;;;11.50;1.00;;;;;;5133936;27;20475;-54
2023/10/18 09:46:13;;;;;;;8.75;3.20;;;11.50;1.00;;;;;;5132698;27;20430;-52
2023/10/18 09:48:42;;;;;;;7.70;4.70;;;11.60;1.00;;;;;;5132891;27;20419;-52
2023/10/18 09:51:10;;;;;;;6.50;4.28;;;11.70;1.00;;;;;;5132164;27;20459;-54
2023/10/18 09:53:43;;;;;;;6.07;4.43;;;11.60;1.00;;;;;;5134361;27;20760;-56
2023/10/18 09:56:12;;;;;;;8.10;5.33;;;11.50;1.00;;;;;;5130487;27;20486;-55
2023/10/18 09:58:43;;;;;;;8.43;4.30;;;11.40;1.00;;;;;;5135253;27;20810;-54
2023/10/18 10:01:25;;;;;;;6.50;4.30;;;11.40;1.00;;;;;;5136392;27;20917;-51
2023/10/18 10:03:56;;;;;;;7.07;3.70;;;11.50;1.00;;;;;;5136050;27;20418;-51
2023/10/18 10:06:24;;;;;;;8.90;3.63;;;11.50;1.00;;;;;;5137466;27;20467;-53
2023/10/18 10:09:11;;;;;;;9.48;4.72;;;11.40;1.00;;;;;;5135054;27;20440;-51
2023/10/18 10:11:39;;;;;;;7.15;3.50;;;11.40;1.00;;;;;;5132837;27;20436;-55
2023/10/18 10:14:07;;;;;;;8.30;4.60;;;11.40;1.00;;;;;;5132779;27;20430;-51
2023/10/18 10:16:38;;;;;;;6.60;3.83;;;11.40;1.00;;;;;;5124357;27;20663;-53
2023/10/18 10:19:11;;;;;;;8.32;3.80;;;11.50;1.00;;;;;;5133241;27;20480;-50
2023/10/18 10:21:40;;;;;;;9.85;5.25;;;11.70;1.00;;;;;;5134073;27;20462;-52
2023/10/18 10:24:14;;;;;;;7.47;4.22;;;11.90;1.00;;;;;;5133665;27;20430;-54
2023/10/18 10:26:42;;;;;;;6.60;3.95;;;12.10;99.90;;;;;;5135987;27;20750;-53
2023/10/18 10:32:04;;;;;;;6.18;3.53;;;12.20;27.00;;;;;;5133800;27;20983;-54
2023/10/18 10:34:34;;;;;;;6.30;3.20;;;12.30;1.00;;;;;;5133498;27;20869;-51
2023/10/18 10:37:09;;;;;;;6.20;4.10;;;12.40;1.00;;;;;;5117276;27;20431;-52
2023/10/18 10:39:44;;;;;;;6.20;3.30;;;12.80;1.00;;;;;;5133904;27;20431;-55
2023/10/18 10:42:19;;;;;;;5.85;3.17;;;13.10;1.00;;;;;;5129087;27;20607;-55
2023/10/18 10:45:06;;;;;;;6.50;3.28;;;13.70;1.00;;;;;;5129928;27;20426;-52
2023/10/18 10:47:42;;;;;;;6.80;3.33;;;14.60;99.90;;;;;;5124373;27;20426;-55
2023/10/18 10:50:10;;;;;;;6.38;3.83;;;15.00;98.40;;;;;;5130303;27;20531;-52
2023/10/18 10:52:40;;;;;;;7.28;3.58;;;14.90;40.60;;;;;;5128077;27;20861;-53
2023/10/18 10:55:24;;;;;;;4.53;2.38;;;14.90;15.60;;;;;;5131334;27;20437;-53
2023/10/18 10:57:51;;;;;;;5.80;3.00;;;14.80;1.00;;;;;;5130712;27;20920;-56
2023/10/18 11:03:29;;;;;;;5.40;2.08;;;14.90;1.00;;;;;;5133915;27;20991;-54
2023/10/18 11:05:58;;;;;;;5.35;2.35;;;15.10;1.00;;;;;;5132070;27;20481;-52
2023/10/18 11:08:27;;;;;;;4.10;2.70;;;15.20;1.00;;;;;;5134325;27;20726;-55
2023/10/18 11:10:55;;;;;;;5.97;3.08;;;15.30;1.00;;;;;;5134871;27;20434;-53
2023/10/18 11:13:24;;;;;;;6.88;3.00;;;15.50;1.00;;;;;;5131786;27;20753;-53
2023/10/18 11:15:53;;;;;;;5.25;2.70;;;15.60;1.00;;;;;;5130699;27;20487;-53
2023/10/18 11:18:22;;;;;;;4.97;2.40;;;15.70;1.00;;;;;;5129842;27;20833;-54
2023/10/18 11:20:58;;;;;;;8.02;3.30;;;15.60;1.00;;;;;;5133296;27;20865;-52
2023/10/18 11:23:27;;;;;;;4.15;2.53;;;15.50;1.00;;;;;;5135600;27;20430;-54
2023/10/18 11:25:56;;;;;;;3.90;2.50;;;15.40;1.00;;;;;;5136548;27;20897;-55
2023/10/18 11:28:29;;;;;;;4.22;1.75;;;15.30;1.00;;;;;;5135578;27;20422;-54
2023/10/18 11:30:58;;;;;;;3.90;2.17;;;15.20;1.00;;;;;;5132569;27;20876;-55
2023/10/18 11:33:46;;;;;;;4.75;2.20;;;15.20;1.00;;;;;;5135880;27;20459;-50
2023/10/18 11:36:18;;;;;;;3.25;1.60;;;15.10;1.00;;;;;;5117066;27;20430;-51
2023/10/18 11:39:07;;;;;;;4.90;2.50;;;14.70;1.00;;;;;;5131843;27;20442;-54
2023/10/18 11:41:34;;;;;;;4.38;2.28;;;14.80;1.00;;;;;;5130976;27;20441;-52
2023/10/18 11:44:06;;;;;;;4.43;2.50;;;15.10;1.00;;;;;;5130156;27;20431;-55
2023/10/18 11:46:47;;;;;;;5.90;2.20;;;15.10;1.00;;;;;;5134613;27;20501;-52
2023/10/18 11:49:19;;;;;;;4.87;2.13;;;15.20;1.00;;;;;;5132932;27;20525;-56
2023/10/18 11:51:48;;;;;;;7.32;2.25;;;15.20;1.00;;;;;;5112965;28;20451;-54
2023/10/18 11:54:29;;;;;;;4.18;2.10;;;15.30;1.00;;;;;;5120335;27;20422;-55
2023/10/18 11:56:57;;;;;;;3.90;2.03;;;15.30;1.00;;;;;;5133366;27;20768;-53
2023/10/18 11:59:25;;;;;;;3.85;1.83;;;15.30;1.00;;;;;;5132040;27;20471;-53
2023/10/18 12:01:59;;;;;;;4.30;1.90;;;15.30;1.00;;;;;;5126972;27;20505;-54
2023/10/18 12:04:28;;;;;;;4.32;2.33;;;15.30;1.00;;;;;;5132896;27;20426;-54
2023/10/18 12:06:57;;;;;;;3.50;1.70;;;15.30;1.00;;;;;;5130995;27;20418;-53
2023/10/18 12:09:30;;;;;;;3.40;2.20;;;15.30;1.00;;;;;;5129693;27;20910;-55
2023/10/18 12:11:59;;;;;;;3.03;1.80;;;15.20;1.00;;;;;;5127267;27;20497;-54
2023/10/18 12:14:26;;;;;;;4.35;1.70;;;15.30;1.00;;;;;;5122552;27;20883;-51
2023/10/18 12:16:54;;;;;;;4.20;1.67;;;15.20;1.00;;;;;;5132493;27;20437;-55
2023/10/18 12:19:22;;;;;;;4.40;1.70;;;15.20;1.00;;;;;;5131955;27;20782;-53
2023/10/18 12:21:54;;;;;;;4.20;1.70;;;15.10;1.00;;;;;;5129003;27;20468;-54
2023/10/18 12:24:22;;;;;;;4.07;1.77;;;15.00;1.00;;;;;;5129019;27;20505;-53
2023/10/18 12:26:54;;;;;;;4.97;1.80;;;15.10;1.00;;;;;;5130721;27;20430;-54
2023/10/18 12:29:26;;;;;;;5.03;2.13;;;15.10;1.00;;;;;;5129214;27;20469;-55
2023/10/18 12:31:58;;;;;;;3.53;1.60;;;15.10;1.00;;;;;;5129584;27;20438;-54
2023/10/18 12:34:28;;;;;;;5.13;1.60;;;15.10;1.00;;;;;;5131874;27;20465;-54
2023/10/18 12:36:58;;;;;;;3.10;1.85;;;15.10;1.00;;;;;;5130889;27;20738;-53
2023/10/18 12:39:26;;;;;;;2.85;1.70;;;15.10;1.00;;;;;;5128611;27;20438;-55
2023/10/18 12:41:55;;;;;;;3.10;1.88;;;15.30;1.00;;;;;;5129612;27;20469;-55
2023/10/18 12:44:25;;;;;;;4.00;1.73;;;15.50;1.00;;;;;;5132202;27;20521;-54
2023/10/18 12:46:53;;;;;;;2.92;1.30;;;15.50;1.00;;;;;;5132036;27;20426;-55
2023/10/18 12:49:23;;;;;;;2.33;1.40;;;15.50;1.00;;;;;;5131722;27;20434;-55
2023/10/18 12:52:00;;;;;;;4.03;2.17;;;15.40;1.00;;;;;;5133096;27;20422;-54
2023/10/18 12:54:33;;;;;;;2.92;1.40;;;15.30;1.00;;;;;;5133539;27;20486;-56
2023/10/18 12:57:10;;;;;;;4.53;1.60;;;15.20;1.00;;;;;;5132484;27;20922;-53
2023/10/18 12:59:52;;;;;;;2.60;1.30;;;15.10;1.00;;;;;;5134601;27;20894;-54
2023/10/18 13:02:46;;;;;;;3.72;1.40;;;15.10;1.00;;;;;;5125118;27;20438;-55
2023/10/18 13:05:14;;;;;;;3.30;1.58;;;15.10;1.00;;;;;;5132808;27;20517;-53
2023/10/18 13:07:43;;;;;;;2.10;1.30;;;15.10;1.00;;;;;;5133098;27;20418;-54
2023/10/18 13:10:15;;;;;;;3.58;1.20;;;15.10;1.00;;;;;;5134585;27;20457;-56
2023/10/18 13:12:51;;;;;;;3.30;1.40;;;15.10;1.00;;;;;;5132817;27;20422;-54
2023/10/18 13:15:18;;;;;;;2.47;1.30;;;15.20;1.00;;;;;;5133278;27;20479;-54
2023/10/18 13:17:45;;;;;;;2.45;1.40;;;15.20;1.00;;;;;;5133108;27;20438;-55
2023/10/18 13:20:15;;;;;;;2.38;1.40;;;15.30;1.00;;;;;;5130837;27;20422;-54
2023/10/18 13:22:42;;;;;;;3.20;1.20;;;15.40;1.00;;;;;;5131675;27;20440;-53
2023/10/18 13:25:25;;;;;;;1.55;0.90;;;15.60;1.00;;;;;;5129434;27;20590;-55
2023/10/18 13:27:54;;;;;;;2.20;1.10;;;15.60;1.00;;;;;;5120204;27;20418;-55
2023/10/18 13:30:32;;;;;;;1.90;0.87;;;15.70;1.00;;;;;;5129050;27;20422;-54
2023/10/18 13:33:01;;;;;;;1.60;0.90;;;15.70;1.00;;;;;;5131613;27;20426;-54
2023/10/18 13:35:29;;;;;;;1.67;0.90;;;15.70;1.00;;;;;;5130312;27;20434;-54
2023/10/18 13:37:58;;;;;;;1.73;0.80;;;15.70;1.00;;;;;;5128387;27;20514;-56
2023/10/18 13:40:27;;;;;;;1.70;0.90;;;15.70;1.00;;;;;;5131502;27;20434;-55
2023/10/18 13:42:54;;;;;;;1.30;0.80;;;15.60;1.00;;;;;;5133653;27;21011;-55